sensor_id;sensor_type;location;lat;lon;timestamp;temperature;humidity
66873;HTU21D;53781;51.090;5.884;2022-12-05T00:00:00;5.10;78.01
66873;HTU21D;53781;51.090;5.884;2022-12-05T00:00:16;5.10;78.06
66873;HTU21D;53781;51.090;5.884;2022-12-05T00:00:32;5.11;78.08
66873;HTU21D;53781;51.090;5.884;2022-12-05T00:00:47;5.11;78.14
66873;HTU21D;53781;51.090;5.884;2022-12-05T00:01:35;5.10;78.12
66873;HTU21D;53781;51.090;5.884;2022-12-05T00:01:50;5.10;78.04
66873;HTU21D;53781;51.090;5.884;2022-12-05T00:02:05;5.12;78.04
66873;HTU21D;53781;51.090;5.884;2022-12-05T00:02:20;5.10;78.08
66873;HTU21D;53781;51.090;5.884;2022-12-05T00:02:34;5.11;77.99
66873;HTU21D;53781;51.090;5.884;2022-12-05T00:02:49;5.09;77.98
66873;HTU21D;53781;51.090;5.884;2022-12-05T00:03:05;5.09;77.96
66873;HTU21D;53781;51.090;5.884;2022-12-05T00:03:20;5.08;77.93
66873;HTU21D;53781;51.090;5.884;2022-12-05T00:03:35;5.09;77.95
66873;HTU21D;53781;51.090;5.884;2022-12-05T00:03:55;5.07;77.93
66873;HTU21D;53781;51.090;5.884;2022-12-05T00:04:12;5.08;77.92
66873;HTU21D;53781;51.090;5.884;2022-12-05T00:04:27;5.07;78.00
66873;HTU21D;53781;51.090;5.884;2022-12-05T00:04:42;5.06;77.96
66873;HTU21D;53781;51.090;5.884;2022-12-05T00:04:57;5.06;77.96
66873;HTU21D;53781;51.090;5.884;2022-12-05T00:05:12;5.07;78.05
66873;HTU21D;53781;51.090;5.884;2022-12-05T00:05:27;5.06;78.13
66873;HTU21D;53781;51.090;5.884;2022-12-05T00:05:42;5.06;78.11
66873;HTU21D;53781;51.090;5.884;2022-12-05T00:05:56;5.07;78.15
66873;HTU21D;53781;51.090;5.884;2022-12-05T00:06:11;5.08;78.18
66873;HTU21D;53781;51.090;5.884;2022-12-05T00:06:28;5.07;78.21
66873;HTU21D;53781;51.090;5.884;2022-12-05T00:06:43;5.08;78.21
66873;HTU21D;53781;51.090;5.884;2022-12-05T00:06:58;5.07;78.20
66873;HTU21D;53781;51.090;5.884;2022-12-05T00:07:13;5.08;78.10
66873;HTU21D;53781;51.090;5.884;2022-12-05T00:07:27;5.08;78.20
66873;HTU21D;53781;51.090;5.884;2022-12-05T00:07:42;5.09;78.21
66873;HTU21D;53781;51.090;5.884;2022-12-05T00:07:57;5.08;78.18
66873;HTU21D;53781;51.090;5.884;2022-12-05T00:08:12;5.08;78.22
66873;HTU21D;53781;51.090;5.884;2022-12-05T00:08:26;5.09;78.17
66873;HTU21D;53781;51.090;5.884;2022-12-05T00:08:42;5.09;78.14
66873;HTU21D;53781;51.090;5.884;2022-12-05T00:08:57;5.09;78.12
66873;HTU21D;53781;51.090;5.884;2022-12-05T00:09:13;5.10;78.13
66873;HTU21D;53781;51.090;5.884;2022-12-05T00:09:28;5.10;78.13
66873;HTU21D;53781;51.090;5.884;2022-12-05T00:09:43;5.09;78.07
66873;HTU21D;53781;51.090;5.884;2022-12-05T00:09:58;5.10;78.07
66873;HTU21D;53781;51.090;5.884;2022-12-05T00:10:12;5.09;78.11
66873;HTU21D;53781;51.090;5.884;2022-12-05T00:10:27;5.10;78.07
66873;HTU21D;53781;51.090;5.884;2022-12-05T00:10:42;5.10;78.11
66873;HTU21D;53781;51.090;5.884;2022-12-05T00:10:57;5.09;78.02
66873;HTU21D;53781;51.090;5.884;2022-12-05T00:11:17;5.08;78.05
66873;HTU21D;53781;51.090;5.884;2022-12-05T00:11:35;5.10;78.07
66873;HTU21D;53781;51.090;5.884;2022-12-05T00:11:50;5.08;77.98
66873;HTU21D;53781;51.090;5.884;2022-12-05T00:12:05;5.09;77.99
66873;HTU21D;53781;51.090;5.884;2022-12-05T00:12:20;5.08;77.99
66873;HTU21D;53781;51.090;5.884;2022-12-05T00:12:35;5.08;78.01
66873;HTU21D;53781;51.090;5.884;2022-12-05T00:12:50;5.08;77.95
66873;HTU21D;53781;51.090;5.884;2022-12-05T00:13:05;5.07;78.07
66873;HTU21D;53781;51.090;5.884;2022-12-05T00:13:19;5.07;78.04
66873;HTU21D;53781;51.090;5.884;2022-12-05T00:13:34;5.08;78.08
66873;HTU21D;53781;51.090;5.884;2022-12-05T00:13:51;5.09;78.03
66873;HTU21D;53781;51.090;5.884;2022-12-05T00:14:08;5.09;78.08
66873;HTU21D;53781;51.090;5.884;2022-12-05T00:14:23;5.09;78.09
66873;HTU21D;53781;51.090;5.884;2022-12-05T00:14:38;5.10;78.09
66873;HTU21D;53781;51.090;5.884;2022-12-05T00:14:53;5.08;78.11
66873;HTU21D;53781;51.090;5.884;2022-12-05T00:15:08;5.08;78.18
66873;HTU21D;53781;51.090;5.884;2022-12-05T00:15:25;5.09;78.19
66873;HTU21D;53781;51.090;5.884;2022-12-05T00:15:40;5.09;78.16
66873;HTU21D;53781;51.090;5.884;2022-12-05T00:15:55;5.10;78.19
66873;HTU21D;53781;51.090;5.884;2022-12-05T00:16:13;5.08;78.13
66873;HTU21D;53781;51.090;5.884;2022-12-05T00:16:30;5.08;78.19
66873;HTU21D;53781;51.090;5.884;2022-12-05T00:16:45;5.11;78.17
66873;HTU21D;53781;51.090;5.884;2022-12-05T00:17:00;5.08;78.08
66873;HTU21D;53781;51.090;5.884;2022-12-05T00:17:15;5.12;78.11
66873;HTU21D;53781;51.090;5.884;2022-12-05T00:17:31;5.09;78.20
66873;HTU21D;53781;51.090;5.884;2022-12-05T00:17:45;5.10;78.08
66873;HTU21D;53781;51.090;5.884;2022-12-05T00:18:00;5.10;78.09
66873;HTU21D;53781;51.090;5.884;2022-12-05T00:18:15;5.10;78.15
66873;HTU21D;53781;51.090;5.884;2022-12-05T00:18:30;5.09;78.09
66873;HTU21D;53781;51.090;5.884;2022-12-05T00:18:45;5.09;78.22
66873;HTU21D;53781;51.090;5.884;2022-12-05T00:19:01;5.11;78.14
66873;HTU21D;53781;51.090;5.884;2022-12-05T00:19:16;5.10;78.14
66873;HTU21D;53781;51.090;5.884;2022-12-05T00:19:31;5.10;78.11
66873;HTU21D;53781;51.090;5.884;2022-12-05T00:19:46;5.11;78.14
66873;HTU21D;53781;51.090;5.884;2022-12-05T00:20:01;5.11;78.06
66873;HTU21D;53781;51.090;5.884;2022-12-05T00:20:15;5.11;78.09
66873;HTU21D;53781;51.090;5.884;2022-12-05T00:20:30;5.11;78.07
66873;HTU21D;53781;51.090;5.884;2022-12-05T00:20:47;5.11;78.14
66873;HTU21D;53781;51.090;5.884;2022-12-05T00:21:03;5.12;78.12
66873;HTU21D;53781;51.090;5.884;2022-12-05T00:21:21;5.13;78.11
66873;HTU21D;53781;51.090;5.884;2022-12-05T00:21:37;5.11;78.01
66873;HTU21D;53781;51.090;5.884;2022-12-05T00:21:51;5.11;78.02
66873;HTU21D;53781;51.090;5.884;2022-12-05T00:22:06;5.11;78.05
66873;HTU21D;53781;51.090;5.884;2022-12-05T00:22:21;5.11;77.98
66873;HTU21D;53781;51.090;5.884;2022-12-05T00:22:36;5.11;78.02
66873;HTU21D;53781;51.090;5.884;2022-12-05T00:22:51;5.10;77.97
66873;HTU21D;53781;51.090;5.884;2022-12-05T00:23:06;5.11;78.01
66873;HTU21D;53781;51.090;5.884;2022-12-05T00:23:21;5.12;77.97
66873;HTU21D;53781;51.090;5.884;2022-12-05T00:23:36;5.09;78.05
66873;HTU21D;53781;51.090;5.884;2022-12-05T00:23:52;5.11;78.03
66873;HTU21D;53781;51.090;5.884;2022-12-05T00:24:12;5.10;78.12
66873;HTU21D;53781;51.090;5.884;2022-12-05T00:24:28;5.10;78.04
66873;HTU21D;53781;51.090;5.884;2022-12-05T00:24:42;5.11;78.14
66873;HTU21D;53781;51.090;5.884;2022-12-05T00:24:57;5.12;78.15
66873;HTU21D;53781;51.090;5.884;2022-12-05T00:25:12;5.10;78.08
66873;HTU21D;53781;51.090;5.884;2022-12-05T00:25:27;5.12;78.05
66873;HTU21D;53781;51.090;5.884;2022-12-05T00:25:42;5.11;78.05
66873;HTU21D;53781;51.090;5.884;2022-12-05T00:26:01;5.11;78.10
66873;HTU21D;53781;51.090;5.884;2022-12-05T00:26:17;5.13;78.11
66873;HTU21D;53781;51.090;5.884;2022-12-05T00:26:33;5.12;78.06
66873;HTU21D;53781;51.090;5.884;2022-12-05T00:26:47;5.11;78.09
66873;HTU21D;53781;51.090;5.884;2022-12-05T00:27:02;5.10;78.08
66873;HTU21D;53781;51.090;5.884;2022-12-05T00:27:17;5.11;78.07
66873;HTU21D;53781;51.090;5.884;2022-12-05T00:27:32;5.10;78.07
66873;HTU21D;53781;51.090;5.884;2022-12-05T00:27:47;5.11;78.08
66873;HTU21D;53781;51.090;5.884;2022-12-05T00:28:02;5.11;78.08
66873;HTU21D;53781;51.090;5.884;2022-12-05T00:28:17;5.11;78.13
66873;HTU21D;53781;51.090;5.884;2022-12-05T00:28:33;5.11;78.14
66873;HTU21D;53781;51.090;5.884;2022-12-05T00:28:48;5.10;78.12
66873;HTU21D;53781;51.090;5.884;2022-12-05T00:29:03;5.13;78.13
66873;HTU21D;53781;51.090;5.884;2022-12-05T00:29:18;5.12;78.16
66873;HTU21D;53781;51.090;5.884;2022-12-05T00:29:33;5.12;78.13
66873;HTU21D;53781;51.090;5.884;2022-12-05T00:29:48;5.12;78.10
66873;HTU21D;53781;51.090;5.884;2022-12-05T00:30:03;5.12;78.12
66873;HTU21D;53781;51.090;5.884;2022-12-05T00:30:19;5.12;78.09
66873;HTU21D;53781;51.090;5.884;2022-12-05T00:30:34;5.11;78.08
66873;HTU21D;53781;51.090;5.884;2022-12-05T00:30:49;5.12;78.10
66873;HTU21D;53781;51.090;5.884;2022-12-05T00:31:09;5.15;78.11
66873;HTU21D;53781;51.090;5.884;2022-12-05T00:31:26;5.13;78.19
66873;HTU21D;53781;51.090;5.884;2022-12-05T00:31:41;5.15;78.20
66873;HTU21D;53781;51.090;5.884;2022-12-05T00:31:56;5.16;78.12
66873;HTU21D;53781;51.090;5.884;2022-12-05T00:32:11;5.15;78.19
66873;HTU21D;53781;51.090;5.884;2022-12-05T00:32:28;5.15;78.11
66873;HTU21D;53781;51.090;5.884;2022-12-05T00:32:43;5.17;78.12
66873;HTU21D;53781;51.090;5.884;2022-12-05T00:32:58;5.16;78.07
66873;HTU21D;53781;51.090;5.884;2022-12-05T00:33:12;5.16;78.08
66873;HTU21D;53781;51.090;5.884;2022-12-05T00:33:27;5.17;78.05
66873;HTU21D;53781;51.090;5.884;2022-12-05T00:33:43;5.17;78.01
66873;HTU21D;53781;51.090;5.884;2022-12-05T00:34:00;5.15;77.98
66873;HTU21D;53781;51.090;5.884;2022-12-05T00:34:15;5.15;77.98
66873;HTU21D;53781;51.090;5.884;2022-12-05T00:34:30;5.16;77.98
66873;HTU21D;53781;51.090;5.884;2022-12-05T00:34:45;5.12;77.94
66873;HTU21D;53781;51.090;5.884;2022-12-05T00:34:59;5.16;77.91
66873;HTU21D;53781;51.090;5.884;2022-12-05T00:35:14;5.15;77.92
66873;HTU21D;53781;51.090;5.884;2022-12-05T00:35:32;5.13;77.96
66873;HTU21D;53781;51.090;5.884;2022-12-05T00:35:47;5.17;78.01
66873;HTU21D;53781;51.090;5.884;2022-12-05T00:36:04;5.15;77.98
66873;HTU21D;53781;51.090;5.884;2022-12-05T00:36:20;5.15;78.00
66873;HTU21D;53781;51.090;5.884;2022-12-05T00:36:36;5.13;78.01
66873;HTU21D;53781;51.090;5.884;2022-12-05T00:36:51;5.12;77.98
66873;HTU21D;53781;51.090;5.884;2022-12-05T00:37:08;5.16;78.01
66873;HTU21D;53781;51.090;5.884;2022-12-05T00:37:23;5.16;77.99
66873;HTU21D;53781;51.090;5.884;2022-12-05T00:37:38;5.13;78.07
66873;HTU21D;53781;51.090;5.884;2022-12-05T00:37:53;5.16;78.07
66873;HTU21D;53781;51.090;5.884;2022-12-05T00:38:08;5.16;78.01
66873;HTU21D;53781;51.090;5.884;2022-12-05T00:38:23;5.15;78.06
66873;HTU21D;53781;51.090;5.884;2022-12-05T00:38:38;5.16;78.01
66873;HTU21D;53781;51.090;5.884;2022-12-05T00:38:54;5.16;78.05
66873;HTU21D;53781;51.090;5.884;2022-12-05T00:39:10;5.16;78.11
66873;HTU21D;53781;51.090;5.884;2022-12-05T00:39:27;5.16;78.03
66873;HTU21D;53781;51.090;5.884;2022-12-05T00:39:42;5.15;78.06
66873;HTU21D;53781;51.090;5.884;2022-12-05T00:39:57;5.15;78.05
66873;HTU21D;53781;51.090;5.884;2022-12-05T00:40:12;5.18;78.02
66873;HTU21D;53781;51.090;5.884;2022-12-05T00:40:27;5.17;78.04
66873;HTU21D;53781;51.090;5.884;2022-12-05T00:40:41;5.17;78.08
66873;HTU21D;53781;51.090;5.884;2022-12-05T00:41:04;5.18;78.02
66873;HTU21D;53781;51.090;5.884;2022-12-05T00:41:24;5.18;78.06
66873;HTU21D;53781;51.090;5.884;2022-12-05T00:41:40;5.17;78.05
66873;HTU21D;53781;51.090;5.884;2022-12-05T00:41:55;5.16;78.04
66873;HTU21D;53781;51.090;5.884;2022-12-05T00:42:10;5.17;78.01
66873;HTU21D;53781;51.090;5.884;2022-12-05T00:42:25;5.17;77.98
66873;HTU21D;53781;51.090;5.884;2022-12-05T00:42:39;5.18;77.96
66873;HTU21D;53781;51.090;5.884;2022-12-05T00:42:54;5.18;77.95
66873;HTU21D;53781;51.090;5.884;2022-12-05T00:43:09;5.17;77.94
66873;HTU21D;53781;51.090;5.884;2022-12-05T00:43:24;5.16;77.93
66873;HTU21D;53781;51.090;5.884;2022-12-05T00:43:39;5.17;77.85
66873;HTU21D;53781;51.090;5.884;2022-12-05T00:43:57;5.15;77.76
66873;HTU21D;53781;51.090;5.884;2022-12-05T00:44:12;5.15;77.80
66873;HTU21D;53781;51.090;5.884;2022-12-05T00:44:27;5.15;77.79
66873;HTU21D;53781;51.090;5.884;2022-12-05T00:44:42;5.15;77.84
66873;HTU21D;53781;51.090;5.884;2022-12-05T00:44:56;5.13;77.89
66873;HTU21D;53781;51.090;5.884;2022-12-05T00:45:11;5.13;77.85
66873;HTU21D;53781;51.090;5.884;2022-12-05T00:45:26;5.12;77.91
66873;HTU21D;53781;51.090;5.884;2022-12-05T00:45:41;5.13;78.04
66873;HTU21D;53781;51.090;5.884;2022-12-05T00:45:55;5.13;78.06
66873;HTU21D;53781;51.090;5.884;2022-12-05T00:46:19;5.11;78.05
66873;HTU21D;53781;51.090;5.884;2022-12-05T00:46:35;5.10;78.13
66873;HTU21D;53781;51.090;5.884;2022-12-05T00:46:50;5.13;78.11
66873;HTU21D;53781;51.090;5.884;2022-12-05T00:47:05;5.11;78.08
66873;HTU21D;53781;51.090;5.884;2022-12-05T00:47:19;5.11;78.05
66873;HTU21D;53781;51.090;5.884;2022-12-05T00:47:35;5.11;78.13
66873;HTU21D;53781;51.090;5.884;2022-12-05T00:47:50;5.11;78.06
66873;HTU21D;53781;51.090;5.884;2022-12-05T00:48:05;5.12;78.05
66873;HTU21D;53781;51.090;5.884;2022-12-05T00:48:20;5.10;78.14
66873;HTU21D;53781;51.090;5.884;2022-12-05T00:48:35;5.12;78.16
66873;HTU21D;53781;51.090;5.884;2022-12-05T00:48:52;5.13;78.11
66873;HTU21D;53781;51.090;5.884;2022-12-05T00:49:07;5.12;78.07
66873;HTU21D;53781;51.090;5.884;2022-12-05T00:49:21;5.12;78.08
66873;HTU21D;53781;51.090;5.884;2022-12-05T00:49:36;5.12;78.15
66873;HTU21D;53781;51.090;5.884;2022-12-05T00:49:51;5.12;78.08
66873;HTU21D;53781;51.090;5.884;2022-12-05T00:50:06;5.13;78.09
66873;HTU21D;53781;51.090;5.884;2022-12-05T00:50:21;5.12;78.15
66873;HTU21D;53781;51.090;5.884;2022-12-05T00:50:36;5.16;78.05
66873;HTU21D;53781;51.090;5.884;2022-12-05T00:51:02;5.16;78.14
66873;HTU21D;53781;51.090;5.884;2022-12-05T00:51:22;5.16;78.09
66873;HTU21D;53781;51.090;5.884;2022-12-05T00:51:40;5.16;78.18
66873;HTU21D;53781;51.090;5.884;2022-12-05T00:51:55;5.15;78.14
66873;HTU21D;53781;51.090;5.884;2022-12-05T00:52:09;5.16;78.07
66873;HTU21D;53781;51.090;5.884;2022-12-05T00:52:25;5.16;78.10
66873;HTU21D;53781;51.090;5.884;2022-12-05T00:52:40;5.16;78.16
66873;HTU21D;53781;51.090;5.884;2022-12-05T00:52:55;5.16;78.07
66873;HTU21D;53781;51.090;5.884;2022-12-05T00:53:09;5.17;78.17
66873;HTU21D;53781;51.090;5.884;2022-12-05T00:53:24;5.15;78.10
66873;HTU21D;53781;51.090;5.884;2022-12-05T00:53:40;5.17;78.09
66873;HTU21D;53781;51.090;5.884;2022-12-05T00:54:00;5.18;78.05
66873;HTU21D;53781;51.090;5.884;2022-12-05T00:54:16;5.17;78.03
66873;HTU21D;53781;51.090;5.884;2022-12-05T00:54:31;5.16;78.00
66873;HTU21D;53781;51.090;5.884;2022-12-05T00:54:46;5.17;78.05
66873;HTU21D;53781;51.090;5.884;2022-12-05T00:55:01;5.18;78.03
66873;HTU21D;53781;51.090;5.884;2022-12-05T00:55:16;5.17;78.04
66873;HTU21D;53781;51.090;5.884;2022-12-05T00:55:31;5.17;77.98
66873;HTU21D;53781;51.090;5.884;2022-12-05T00:55:45;5.18;78.05
66873;HTU21D;53781;51.090;5.884;2022-12-05T00:56:05;5.17;77.98
66873;HTU21D;53781;51.090;5.884;2022-12-05T00:56:23;5.18;78.06
66873;HTU21D;53781;51.090;5.884;2022-12-05T00:56:38;5.18;77.93
66873;HTU21D;53781;51.090;5.884;2022-12-05T00:56:53;5.17;78.00
66873;HTU21D;53781;51.090;5.884;2022-12-05T00:57:09;5.18;78.00
66873;HTU21D;53781;51.090;5.884;2022-12-05T00:57:24;5.18;78.00
66873;HTU21D;53781;51.090;5.884;2022-12-05T00:57:39;5.17;78.03
66873;HTU21D;53781;51.090;5.884;2022-12-05T00:57:54;5.17;77.97
66873;HTU21D;53781;51.090;5.884;2022-12-05T00:58:08;5.16;78.07
66873;HTU21D;53781;51.090;5.884;2022-12-05T00:58:23;5.17;78.04
66873;HTU21D;53781;51.090;5.884;2022-12-05T00:58:39;5.17;78.11
66873;HTU21D;53781;51.090;5.884;2022-12-05T00:58:55;5.16;78.05
66873;HTU21D;53781;51.090;5.884;2022-12-05T00:59:15;5.16;78.03
66873;HTU21D;53781;51.090;5.884;2022-12-05T00:59:30;5.17;78.05
66873;HTU21D;53781;51.090;5.884;2022-12-05T00:59:45;5.17;78.04
66873;HTU21D;53781;51.090;5.884;2022-12-05T01:00:00;5.18;78.03
66873;HTU21D;53781;51.090;5.884;2022-12-05T01:00:15;5.18;78.02
66873;HTU21D;53781;51.090;5.884;2022-12-05T01:00:30;5.18;78.08
66873;HTU21D;53781;51.090;5.884;2022-12-05T01:00:45;5.18;78.03
66873;HTU21D;53781;51.090;5.884;2022-12-05T01:01:16;5.16;78.04
66873;HTU21D;53781;51.090;5.884;2022-12-05T01:01:34;5.17;78.06
66873;HTU21D;53781;51.090;5.884;2022-12-05T01:01:50;5.17;78.00
66873;HTU21D;53781;51.090;5.884;2022-12-05T01:02:05;5.19;78.02
66873;HTU21D;53781;51.090;5.884;2022-12-05T01:02:20;5.19;77.99
66873;HTU21D;53781;51.090;5.884;2022-12-05T01:02:35;5.17;78.01
66873;HTU21D;53781;51.090;5.884;2022-12-05T01:02:49;5.18;77.94
66873;HTU21D;53781;51.090;5.884;2022-12-05T01:03:04;5.19;78.02
66873;HTU21D;53781;51.090;5.884;2022-12-05T01:03:19;5.18;78.01
66873;HTU21D;53781;51.090;5.884;2022-12-05T01:03:34;5.18;78.01
66873;HTU21D;53781;51.090;5.884;2022-12-05T01:03:53;5.17;78.02
66873;HTU21D;53781;51.090;5.884;2022-12-05T01:04:12;5.19;77.99
66873;HTU21D;53781;51.090;5.884;2022-12-05T01:04:28;5.17;78.02
66873;HTU21D;53781;51.090;5.884;2022-12-05T01:04:42;5.17;78.05
66873;HTU21D;53781;51.090;5.884;2022-12-05T01:04:57;5.18;78.07
66873;HTU21D;53781;51.090;5.884;2022-12-05T01:05:12;5.17;78.04
66873;HTU21D;53781;51.090;5.884;2022-12-05T01:05:27;5.18;78.08
66873;HTU21D;53781;51.090;5.884;2022-12-05T01:05:42;5.20;77.98
66873;HTU21D;53781;51.090;5.884;2022-12-05T01:05:58;5.19;78.08
66873;HTU21D;53781;51.090;5.884;2022-12-05T01:06:14;5.18;78.08
66873;HTU21D;53781;51.090;5.884;2022-12-05T01:06:29;5.18;77.99
66873;HTU21D;53781;51.090;5.884;2022-12-05T01:06:44;5.19;78.02
66873;HTU21D;53781;51.090;5.884;2022-12-05T01:06:59;5.18;77.99
66873;HTU21D;53781;51.090;5.884;2022-12-05T01:07:14;5.18;78.05
66873;HTU21D;53781;51.090;5.884;2022-12-05T01:07:28;5.19;77.99
66873;HTU21D;53781;51.090;5.884;2022-12-05T01:07:43;5.18;77.99
66873;HTU21D;53781;51.090;5.884;2022-12-05T01:07:58;5.18;78.01
66873;HTU21D;53781;51.090;5.884;2022-12-05T01:08:13;5.19;78.02
66873;HTU21D;53781;51.090;5.884;2022-12-05T01:08:28;5.18;78.00
66873;HTU21D;53781;51.090;5.884;2022-12-05T01:08:42;5.18;77.98
66873;HTU21D;53781;51.090;5.884;2022-12-05T01:08:58;5.19;77.97
66873;HTU21D;53781;51.090;5.884;2022-12-05T01:09:16;5.18;77.93
66873;HTU21D;53781;51.090;5.884;2022-12-05T01:09:31;5.20;78.01
66873;HTU21D;53781;51.090;5.884;2022-12-05T01:09:46;5.21;77.96
66873;HTU21D;53781;51.090;5.884;2022-12-05T01:10:01;5.19;78.01
66873;HTU21D;53781;51.090;5.884;2022-12-05T01:10:17;5.18;77.98
66873;HTU21D;53781;51.090;5.884;2022-12-05T01:10:32;5.19;77.95
66873;HTU21D;53781;51.090;5.884;2022-12-05T01:10:55;5.21;78.02
66873;HTU21D;53781;51.090;5.884;2022-12-05T01:11:11;5.21;77.99
66873;HTU21D;53781;51.090;5.884;2022-12-05T01:11:28;5.22;77.98
66873;HTU21D;53781;51.090;5.884;2022-12-05T01:11:43;5.20;77.96
66873;HTU21D;53781;51.090;5.884;2022-12-05T01:11:58;5.23;77.98
66873;HTU21D;53781;51.090;5.884;2022-12-05T01:12:13;5.21;78.01
66873;HTU21D;53781;51.090;5.884;2022-12-05T01:12:28;5.22;77.98
66873;HTU21D;53781;51.090;5.884;2022-12-05T01:12:43;5.21;78.00
66873;HTU21D;53781;51.090;5.884;2022-12-05T01:12:57;5.23;77.94
66873;HTU21D;53781;51.090;5.884;2022-12-05T01:13:12;5.23;77.98
66873;HTU21D;53781;51.090;5.884;2022-12-05T01:13:28;5.23;77.94
66873;HTU21D;53781;51.090;5.884;2022-12-05T01:13:44;5.24;77.96
66873;HTU21D;53781;51.090;5.884;2022-12-05T01:13:59;5.23;77.98
66873;HTU21D;53781;51.090;5.884;2022-12-05T01:14:16;5.22;77.93
66873;HTU21D;53781;51.090;5.884;2022-12-05T01:14:31;5.23;77.90
66873;HTU21D;53781;51.090;5.884;2022-12-05T01:14:46;5.23;77.93
66873;HTU21D;53781;51.090;5.884;2022-12-05T01:15:00;5.24;77.97
66873;HTU21D;53781;51.090;5.884;2022-12-05T01:15:15;5.24;77.91
66873;HTU21D;53781;51.090;5.884;2022-12-05T01:15:30;5.24;77.88
66873;HTU21D;53781;51.090;5.884;2022-12-05T01:15:45;5.24;77.94
66873;HTU21D;53781;51.090;5.884;2022-12-05T01:16:00;5.24;77.85
66873;HTU21D;53781;51.090;5.884;2022-12-05T01:16:21;5.23;77.78
66873;HTU21D;53781;51.090;5.884;2022-12-05T01:16:38;5.23;77.78
66873;HTU21D;53781;51.090;5.884;2022-12-05T01:16:54;5.22;77.77
66873;HTU21D;53781;51.090;5.884;2022-12-05T01:17:09;5.23;77.76
66873;HTU21D;53781;51.090;5.884;2022-12-05T01:17:24;5.23;77.76
66873;HTU21D;53781;51.090;5.884;2022-12-05T01:17:39;5.23;77.83
66873;HTU21D;53781;51.090;5.884;2022-12-05T01:17:53;5.22;77.76
66873;HTU21D;53781;51.090;5.884;2022-12-05T01:18:08;5.21;77.78
66873;HTU21D;53781;51.090;5.884;2022-12-05T01:18:24;5.22;77.80
66873;HTU21D;53781;51.090;5.884;2022-12-05T01:18:39;5.21;77.79
66873;HTU21D;53781;51.090;5.884;2022-12-05T01:18:55;5.21;77.82
66873;HTU21D;53781;51.090;5.884;2022-12-05T01:19:18;5.21;77.82
66873;HTU21D;53781;51.090;5.884;2022-12-05T01:19:34;5.23;77.85
66873;HTU21D;53781;51.090;5.884;2022-12-05T01:19:48;5.22;77.91
66873;HTU21D;53781;51.090;5.884;2022-12-05T01:20:04;5.22;77.79
66873;HTU21D;53781;51.090;5.884;2022-12-05T01:20:19;5.22;77.88
66873;HTU21D;53781;51.090;5.884;2022-12-05T01:20:33;5.20;77.89
66873;HTU21D;53781;51.090;5.884;2022-12-05T01:20:48;5.24;77.93
66873;HTU21D;53781;51.090;5.884;2022-12-05T01:21:04;5.24;77.81
66873;HTU21D;53781;51.090;5.884;2022-12-05T01:21:20;5.23;77.87
66873;HTU21D;53781;51.090;5.884;2022-12-05T01:21:35;5.19;77.89
66873;HTU21D;53781;51.090;5.884;2022-12-05T01:21:50;5.22;77.92
66873;HTU21D;53781;51.090;5.884;2022-12-05T01:22:05;5.21;77.85
66873;HTU21D;53781;51.090;5.884;2022-12-05T01:22:20;5.21;77.82
66873;HTU21D;53781;51.090;5.884;2022-12-05T01:22:35;5.22;77.91
66873;HTU21D;53781;51.090;5.884;2022-12-05T01:22:50;5.21;77.85
66873;HTU21D;53781;51.090;5.884;2022-12-05T01:23:05;5.24;77.78
66873;HTU21D;53781;51.090;5.884;2022-12-05T01:23:21;5.20;77.87
66873;HTU21D;53781;51.090;5.884;2022-12-05T01:23:36;5.22;77.89
66873;HTU21D;53781;51.090;5.884;2022-12-05T01:23:51;5.24;77.92
66873;HTU21D;53781;51.090;5.884;2022-12-05T01:24:06;5.23;77.82
66873;HTU21D;53781;51.090;5.884;2022-12-05T01:24:22;5.21;77.83
66873;HTU21D;53781;51.090;5.884;2022-12-05T01:24:37;5.22;77.81
66873;HTU21D;53781;51.090;5.884;2022-12-05T01:24:52;5.22;77.85
66873;HTU21D;53781;51.090;5.884;2022-12-05T01:25:07;5.24;77.84
66873;HTU21D;53781;51.090;5.884;2022-12-05T01:25:22;5.23;77.79
66873;HTU21D;53781;51.090;5.884;2022-12-05T01:25:45;5.22;77.92
66873;HTU21D;53781;51.090;5.884;2022-12-05T01:26:05;5.25;77.85
66873;HTU21D;53781;51.090;5.884;2022-12-05T01:26:22;5.25;77.79
66873;HTU21D;53781;51.090;5.884;2022-12-05T01:26:37;5.24;77.86
66873;HTU21D;53781;51.090;5.884;2022-12-05T01:26:54;5.24;77.77
66873;HTU21D;53781;51.090;5.884;2022-12-05T01:27:09;5.22;77.80
66873;HTU21D;53781;51.090;5.884;2022-12-05T01:27:23;5.24;77.76
66873;HTU21D;53781;51.090;5.884;2022-12-05T01:27:38;5.24;77.81
66873;HTU21D;53781;51.090;5.884;2022-12-05T01:27:53;5.25;77.72
66873;HTU21D;53781;51.090;5.884;2022-12-05T01:28:09;5.27;77.71
66873;HTU21D;53781;51.090;5.884;2022-12-05T01:28:24;5.26;77.66
66873;HTU21D;53781;51.090;5.884;2022-12-05T01:28:39;5.23;77.66
66873;HTU21D;53781;51.090;5.884;2022-12-05T01:28:54;5.26;77.76
66873;HTU21D;53781;51.090;5.884;2022-12-05T01:29:12;5.25;77.67
66873;HTU21D;53781;51.090;5.884;2022-12-05T01:29:27;5.26;77.68
66873;HTU21D;53781;51.090;5.884;2022-12-05T01:29:42;5.26;77.72
66873;HTU21D;53781;51.090;5.884;2022-12-05T01:29:57;5.25;77.76
66873;HTU21D;53781;51.090;5.884;2022-12-05T01:30:12;5.26;77.78
66873;HTU21D;53781;51.090;5.884;2022-12-05T01:30:27;5.27;77.69
66873;HTU21D;53781;51.090;5.884;2022-12-05T01:30:45;5.28;77.73
66873;HTU21D;53781;51.090;5.884;2022-12-05T01:31:23;5.27;77.70
66873;HTU21D;53781;51.090;5.884;2022-12-05T01:31:39;5.28;77.70
66873;HTU21D;53781;51.090;5.884;2022-12-05T01:31:54;5.30;77.66
66873;HTU21D;53781;51.090;5.884;2022-12-05T01:32:09;5.36;77.54
66873;HTU21D;53781;51.090;5.884;2022-12-05T01:32:24;5.34;77.49
66873;HTU21D;53781;51.090;5.884;2022-12-05T01:32:39;5.33;77.53
66873;HTU21D;53781;51.090;5.884;2022-12-05T01:32:54;5.33;77.63
66873;HTU21D;53781;51.090;5.884;2022-12-05T01:33:09;5.33;77.53
66873;HTU21D;53781;51.090;5.884;2022-12-05T01:33:24;5.32;77.57
66873;HTU21D;53781;51.090;5.884;2022-12-05T01:33:39;5.31;77.60
66873;HTU21D;53781;51.090;5.884;2022-12-05T01:33:56;5.30;77.64
66873;HTU21D;53781;51.090;5.884;2022-12-05T01:34:14;5.31;77.58
66873;HTU21D;53781;51.090;5.884;2022-12-05T01:34:29;5.31;77.60
66873;HTU21D;53781;51.090;5.884;2022-12-05T01:34:44;5.30;77.64
66873;HTU21D;53781;51.090;5.884;2022-12-05T01:34:59;5.31;77.68
66873;HTU21D;53781;51.090;5.884;2022-12-05T01:35:14;5.31;77.64
66873;HTU21D;53781;51.090;5.884;2022-12-05T01:35:31;5.31;77.66
66873;HTU21D;53781;51.090;5.884;2022-12-05T01:35:46;5.31;77.63
66873;HTU21D;53781;51.090;5.884;2022-12-05T01:36:02;5.31;77.66
66873;HTU21D;53781;51.090;5.884;2022-12-05T01:36:18;5.32;77.71
66873;HTU21D;53781;51.090;5.884;2022-12-05T01:36:33;5.32;77.65
66873;HTU21D;53781;51.090;5.884;2022-12-05T01:36:47;5.31;77.76
66873;HTU21D;53781;51.090;5.884;2022-12-05T01:37:02;5.32;77.65
66873;HTU21D;53781;51.090;5.884;2022-12-05T01:37:17;5.34;77.67
66873;HTU21D;53781;51.090;5.884;2022-12-05T01:37:32;5.33;77.67
66873;HTU21D;53781;51.090;5.884;2022-12-05T01:37:47;5.34;77.60
66873;HTU21D;53781;51.090;5.884;2022-12-05T01:38:02;5.33;77.59
66873;HTU21D;53781;51.090;5.884;2022-12-05T01:38:17;5.33;77.66
66873;HTU21D;53781;51.090;5.884;2022-12-05T01:38:31;5.34;77.55
66873;HTU21D;53781;51.090;5.884;2022-12-05T01:38:47;5.34;77.60
66873;HTU21D;53781;51.090;5.884;2022-12-05T01:39:02;5.34;77.63
66873;HTU21D;53781;51.090;5.884;2022-12-05T01:39:18;5.32;77.66